createdAt,value
2016-06-01T00:00:18.897Z,0
2016-06-01T00:01:18.931Z,0
2016-06-01T00:02:18.809Z,0
2016-06-01T00:03:18.969Z,0
2016-06-01T00:04:33.189Z,0
2016-06-01T00:05:19.036Z,0
2016-06-01T00:06:19.054Z,0
2016-06-01T00:07:19.072Z,0
2016-06-01T00:08:19.388Z,0
2016-06-01T00:09:19.718Z,0
2016-06-01T00:10:19.165Z,0
2016-06-01T00:11:33.397Z,0
2016-06-01T00:12:19.269Z,0
2016-06-01T00:13:19.330Z,0
2016-06-01T00:14:19.217Z,0
2016-06-01T00:16:19.432Z,0
2016-06-01T00:17:19.476Z,0
2016-06-01T00:18:19.363Z,0
2016-06-01T00:19:19.547Z,0
2016-06-01T00:20:19.571Z,0
2016-06-01T00:21:19.608Z,0
2016-06-01T00:23:20.214Z,0
2016-06-01T00:24:33.736Z,0
2016-06-01T00:25:33.911Z,0
2016-06-01T00:26:19.743Z,0
2016-06-01T00:27:33.794Z,0
2016-06-01T00:28:19.798Z,0
2016-06-01T00:29:19.818Z,0
2016-06-01T00:30:19.852Z,0
2016-06-01T00:31:19.714Z,0
2016-06-01T00:32:34.092Z,0
2016-06-01T00:33:19.924Z,0
2016-06-01T00:35:34.008Z,0
2016-06-01T00:36:19.995Z,0
2016-06-01T00:37:19.873Z,0
2016-06-01T00:38:34.234Z,0
2016-06-01T00:39:20.003Z,0
2016-06-01T00:40:34.287Z,0
2016-06-01T00:41:19.962Z,0
2016-06-01T00:42:20.136Z,0
2016-06-01T00:43:34.358Z,0
2016-06-01T00:44:20.188Z,0
2016-06-01T00:45:20.207Z,0
2016-06-01T00:46:20.085Z,0
2016-06-01T00:47:20.274Z,0
2016-06-01T00:48:20.136Z,0
2016-06-01T00:49:20.311Z,0
2016-06-01T00:50:20.189Z,0
2016-06-01T00:51:20.363Z,0
2016-06-01T00:52:20.382Z,0
2016-06-01T00:53:20.416Z,0
2016-06-01T00:54:20.902Z,0
2016-06-01T00:55:34.499Z,0
2016-06-01T00:56:20.502Z,0
2016-06-01T00:57:20.520Z,0
2016-06-01T00:58:34.726Z,0
2016-06-01T00:59:20.416Z,0
2016-06-01T01:00:20.590Z,0
2016-06-01T01:01:20.625Z,0
2016-06-01T01:02:20.674Z,0
2016-06-01T01:03:20.662Z,0
2016-06-01T01:04:20.554Z,0
2016-06-01T01:05:20.714Z,0
2016-06-01T01:06:20.731Z,0
2016-06-01T01:07:20.766Z,0
2016-06-01T01:08:20.800Z,0
2016-06-01T01:09:21.943Z,0
2016-06-01T01:10:20.836Z,0
2016-06-01T01:11:20.855Z,0
2016-06-01T01:12:20.889Z,0
2016-06-01T01:13:20.922Z,0
2016-06-01T01:15:20.975Z,0
2016-06-01T01:17:35.199Z,0
2016-06-01T01:18:20.874Z,0
2016-06-01T01:19:35.251Z,0
2016-06-01T01:20:21.097Z,0
2016-06-01T01:21:21.100Z,0
2016-06-01T01:22:21.135Z,0
2016-06-01T01:23:21.152Z,0
2016-06-01T01:24:22.155Z,0
2016-06-01T01:25:21.049Z,0
2016-06-01T01:26:21.223Z,0
2016-06-01T01:27:21.257Z,0
2016-06-01T01:28:21.276Z,0
2016-06-01T01:29:21.154Z,0
2016-06-01T01:30:35.515Z,0
2016-06-01T01:31:21.361Z,0
2016-06-01T01:32:21.223Z,0
2016-06-01T01:33:21.257Z,0
2016-06-01T01:34:35.620Z,0
2016-06-01T01:35:21.466Z,0
2016-06-01T01:36:21.328Z,0
2016-06-01T01:37:21.190Z,0
2016-06-01T01:38:21.537Z,0
2016-06-01T01:40:21.573Z,0
2016-06-01T01:41:21.607Z,0
2016-06-01T01:42:21.469Z,0
2016-06-01T01:44:21.522Z,0
2016-06-01T01:45:21.696Z,0
2016-06-01T01:46:35.761Z,0
2016-06-01T01:47:21.749Z,0
2016-06-01T01:48:21.611Z,0
2016-06-01T01:49:21.785Z,0
2016-06-01T01:50:21.835Z,0
2016-06-01T01:51:21.838Z,0
2016-06-01T01:52:21.871Z,0
2016-06-01T01:53:21.749Z,0
2016-06-01T01:54:21.923Z,0
2016-06-01T01:55:21.785Z,0
2016-06-01T01:56:36.163Z,0
2016-06-01T01:57:21.838Z,0
2016-06-01T01:58:22.012Z,0
2016-06-01T01:59:36.218Z,0
2016-06-01T02:00:22.065Z,0
2016-06-01T02:01:22.098Z,0
2016-06-01T02:02:36.304Z,0
2016-06-01T02:03:21.994Z,0
2016-06-01T02:04:22.154Z,0
2016-06-01T02:05:22.187Z,0
2016-06-01T02:06:22.065Z,0
2016-06-01T02:07:22.084Z,0
2016-06-01T02:08:22.273Z,0
2016-06-01T02:09:22.807Z,0
2016-06-01T02:10:36.498Z,0
2016-06-01T02:11:22.328Z,0
2016-06-01T02:12:22.362Z,0
2016-06-01T02:14:36.602Z,0
2016-06-01T02:15:36.620Z,0
2016-06-01T02:16:22.452Z,0
2016-06-01T02:17:22.486Z,0
2016-06-01T02:18:36.691Z,0
2016-06-01T02:19:22.538Z,0
2016-06-01T02:20:22.399Z,0
2016-06-01T02:21:22.277Z,4
2016-06-01T02:22:22.452Z,4
2016-06-01T02:23:22.626Z,4
2016-06-01T02:24:22.755Z,0
2016-06-01T02:25:22.694Z,4
2016-06-01T02:26:22.399Z,4
2016-06-01T02:28:22.749Z,8
2016-06-01T02:29:22.767Z,4
2016-06-01T02:30:36.990Z,4
2016-06-01T02:31:22.821Z,8
2016-06-01T02:32:22.853Z,4
2016-06-01T02:33:37.060Z,8
2016-06-01T02:34:22.890Z,8
2016-06-01T02:35:22.768Z,8
2016-06-01T02:36:22.787Z,12
2016-06-01T02:37:22.976Z,8
2016-06-01T02:38:22.994Z,12
2016-06-01T02:39:23.028Z,12
2016-06-01T02:40:37.234Z,16
2016-06-01T02:41:23.097Z,16
2016-06-01T02:42:23.100Z,16
2016-06-01T02:44:37.323Z,24
2016-06-01T02:45:23.169Z,24
2016-06-01T02:46:37.375Z,28
2016-06-01T02:47:37.378Z,32
2016-06-01T02:48:23.163Z,32
2016-06-01T02:49:22.962Z,36
2016-06-01T02:50:23.339Z,36
2016-06-01T02:51:23.029Z,36
2016-06-01T02:52:23.188Z,32
2016-06-01T02:53:23.723Z,32
2016-06-01T02:54:23.397Z,28
2016-06-01T02:57:23.421Z,32
2016-06-01T02:58:23.329Z,36
2016-06-01T02:59:23.505Z,40
2016-06-01T03:00:23.538Z,40
2016-06-01T03:01:23.557Z,44
2016-06-01T03:02:23.435Z,44
2016-06-01T03:03:23.624Z,52
2016-06-01T03:04:23.626Z,60
2016-06-01T03:05:37.834Z,72
2016-06-01T03:06:23.679Z,80
2016-06-01T03:07:23.729Z,88
2016-06-01T03:08:23.560Z,92
2016-06-01T03:09:24.156Z,88
2016-06-01T03:10:37.815Z,88
2016-06-01T03:11:23.661Z,92
2016-06-01T03:12:23.837Z,100
2016-06-01T03:13:23.714Z,100
2016-06-01T03:14:23.873Z,100
2016-06-01T03:15:23.906Z,96
2016-06-01T03:16:37.956Z,92
2016-06-01T03:17:23.803Z,92
2016-06-01T03:18:23.994Z,96
2016-06-01T03:20:24.014Z,112
2016-06-01T03:21:38.236Z,116
2016-06-01T03:22:24.066Z,120
2016-06-01T03:23:24.210Z,120
2016-06-01T03:24:24.494Z,124
2016-06-01T03:25:24.138Z,124
2016-06-01T03:26:24.171Z,116
2016-06-01T03:27:24.189Z,120
2016-06-01T03:28:24.224Z,132
2016-06-01T03:29:24.241Z,148
2016-06-01T03:30:38.447Z,172
2016-06-01T03:31:24.294Z,180
2016-06-01T03:32:24.328Z,176
2016-06-01T03:34:24.051Z,168
2016-06-01T03:35:24.382Z,176
2016-06-01T03:36:24.260Z,184
2016-06-01T03:37:38.623Z,200
2016-06-01T03:38:24.501Z,204
2016-06-01T03:39:24.628Z,212
2016-06-01T03:40:38.708Z,240
2016-06-01T03:41:24.539Z,248
2016-06-01T03:42:24.401Z,252
2016-06-01T03:43:24.592Z,268
2016-06-01T03:44:24.454Z,276
2016-06-01T03:45:24.488Z,288
2016-06-01T03:46:24.661Z,328
2016-06-01T03:47:24.696Z,336
2016-06-01T03:48:24.402Z,316
2016-06-01T03:49:24.733Z,296
2016-06-01T03:50:38.938Z,288
2016-06-01T03:51:38.958Z,300
2016-06-01T03:52:24.802Z,320
2016-06-01T03:53:38.884Z,368
2016-06-01T03:54:25.184Z,428
2016-06-01T03:55:24.874Z,428
2016-06-01T03:56:24.892Z,432
2016-06-01T03:57:24.786Z,416
2016-06-01T03:59:24.979Z,352
2016-06-01T04:00:24.996Z,328
2016-06-01T04:01:25.030Z,312
2016-06-01T04:02:24.893Z,324
2016-06-01T04:03:25.068Z,352
2016-06-01T04:04:25.086Z,384
2016-06-01T04:05:25.119Z,412
2016-06-01T04:06:25.154Z,432
2016-06-01T04:07:25.172Z,460
2016-06-01T04:08:39.393Z,504
2016-06-01T04:09:25.521Z,556
2016-06-01T04:10:25.243Z,604
2016-06-01T04:11:39.464Z,596
2016-06-01T04:12:25.139Z,608
2016-06-01T04:13:25.313Z,576
2016-06-01T04:15:25.365Z,576
2016-06-01T04:16:25.384Z,592
2016-06-01T04:17:25.261Z,660
2016-06-01T04:18:25.280Z,708
2016-06-01T04:19:25.469Z,708
2016-06-01T04:20:25.176Z,704
2016-06-01T04:22:25.384Z,624
2016-06-01T04:23:25.949Z,584
2016-06-01T04:24:25.811Z,560
2016-06-01T04:25:25.454Z,592
2016-06-01T04:26:39.833Z,656
2016-06-01T04:27:25.663Z,708
2016-06-01T04:28:25.682Z,768
2016-06-01T04:29:25.715Z,788
2016-06-01T04:30:25.734Z,816
2016-06-01T04:31:25.767Z,912
2016-06-01T04:32:25.786Z,1080
2016-06-01T04:33:25.820Z,1180
2016-06-01T04:34:25.823Z,1224
2016-06-01T04:35:25.857Z,1236
2016-06-01T04:36:25.874Z,1272
2016-06-01T04:37:25.909Z,1352
2016-06-01T04:38:25.771Z,1344
2016-06-01T04:39:26.337Z,1316
2016-06-01T04:40:40.167Z,1272
2016-06-01T04:41:25.998Z,1212
2016-06-01T04:42:26.031Z,1152
2016-06-01T04:43:26.050Z,1156
2016-06-01T04:44:26.084Z,1204
2016-06-01T04:45:26.117Z,1236
2016-06-01T04:46:26.136Z,1196
2016-06-01T04:47:26.170Z,1108
2016-06-01T04:48:26.188Z,1032
2016-06-01T04:49:26.254Z,964
2016-06-01T04:50:26.225Z,996
2016-06-01T04:52:40.450Z,1276
2016-06-01T04:53:26.155Z,1252
2016-06-01T04:54:26.172Z,1148
2016-06-01T04:55:26.192Z,1100
2016-06-01T04:56:40.397Z,1024
2016-06-01T04:57:26.244Z,1016
2016-06-01T04:58:26.262Z,1076
2016-06-01T04:59:26.453Z,1124
2016-06-01T05:00:26.314Z,1168
2016-06-01T05:01:26.489Z,1336
2016-06-01T05:02:26.507Z,1460
2016-06-01T05:03:26.541Z,1644
2016-06-01T05:04:26.575Z,1636
2016-06-01T05:05:26.437Z,1648
2016-06-01T05:06:26.627Z,1640
2016-06-01T05:07:26.349Z,1608
2016-06-01T05:08:26.524Z,1744
2016-06-01T05:09:26.730Z,2032
2016-06-01T05:10:26.716Z,2200
2016-06-01T05:12:40.800Z,2124
2016-06-01T05:13:26.490Z,2212
2016-06-01T05:14:26.664Z,2140
2016-06-01T05:15:26.839Z,2184
2016-06-01T05:16:26.857Z,2164
2016-06-01T05:17:40.923Z,2340
2016-06-01T05:18:26.925Z,2292
2016-06-01T05:19:26.944Z,2284
2016-06-01T05:20:41.150Z,3140
2016-06-01T05:21:26.981Z,4076
2016-06-01T05:22:26.873Z,4892
2016-06-01T05:23:27.032Z,5156
2016-06-01T05:24:27.051Z,4240
2016-06-01T05:25:26.928Z,3556
2016-06-01T05:26:27.119Z,2824
2016-06-01T05:27:26.981Z,2580
2016-06-01T05:28:41.202Z,2144
2016-06-01T05:29:27.205Z,1992
2016-06-01T05:30:27.224Z,1812
2016-06-01T05:31:27.257Z,1832
2016-06-01T05:32:27.291Z,2060
2016-06-01T05:33:27.294Z,1912
2016-06-01T05:34:27.312Z,1708
2016-06-01T05:35:27.330Z,1656
2016-06-01T05:36:27.365Z,1528
2016-06-01T05:37:27.383Z,1444
2016-06-01T05:38:27.260Z,1268
2016-06-01T05:39:27.294Z,1212
2016-06-01T05:40:27.312Z,1204
2016-06-01T05:41:27.487Z,1284
2016-06-01T05:42:27.506Z,1460
2016-06-01T05:43:41.726Z,1476
2016-06-01T05:44:27.557Z,1512
2016-06-01T05:45:27.592Z,1560
2016-06-01T05:47:27.644Z,1844
2016-06-01T05:48:27.662Z,1824
2016-06-01T05:49:27.540Z,1724
2016-06-01T05:50:27.715Z,1568
2016-06-01T05:51:27.748Z,1540
2016-06-01T05:52:27.611Z,1336
2016-06-01T05:53:27.988Z,1328
2016-06-01T05:54:27.538Z,1264
2016-06-01T05:55:27.837Z,1388
2016-06-01T05:56:27.872Z,1740
2016-06-01T05:57:27.889Z,2004
2016-06-01T05:58:27.924Z,2380
2016-06-01T05:59:27.942Z,3044
2016-06-01T06:00:27.961Z,3808
2016-06-01T06:02:28.013Z,3196
2016-06-01T06:03:28.031Z,2900
2016-06-01T06:04:28.065Z,2640
2016-06-01T06:05:28.082Z,2504
2016-06-01T06:06:42.132Z,2408
2016-06-01T06:07:28.135Z,2368
2016-06-01T06:08:43.185Z,2572
2016-06-01T06:09:43.140Z,2588
2016-06-01T06:10:28.206Z,2620
2016-06-01T06:11:28.240Z,2668
2016-06-01T06:12:28.258Z,2572
2016-06-01T06:13:27.980Z,2472
2016-06-01T06:14:28.154Z,2380
2016-06-01T06:16:28.362Z,2108
2016-06-01T06:17:28.381Z,1796
2016-06-01T06:18:28.414Z,1544
2016-06-01T06:19:28.433Z,1316
2016-06-01T06:21:28.485Z,984
2016-06-01T06:22:28.347Z,924
2016-06-01T06:23:28.538Z,816
2016-06-01T06:24:29.447Z,760
2016-06-01T06:25:42.762Z,680
2016-06-01T06:26:42.795Z,628
2016-06-01T06:27:42.814Z,624
2016-06-01T06:28:28.504Z,652
2016-06-01T06:29:28.679Z,676
2016-06-01T06:30:28.697Z,684
2016-06-01T06:31:42.902Z,640
2016-06-01T06:32:28.765Z,652
2016-06-01T06:33:28.783Z,716
2016-06-01T06:34:28.802Z,768
2016-06-01T06:35:28.680Z,804
2016-06-01T06:37:28.872Z,1000
2016-06-01T06:38:28.906Z,1260
2016-06-01T06:39:28.799Z,1284
2016-06-01T06:40:43.146Z,1340
2016-06-01T06:41:43.165Z,1368
2016-06-01T06:42:43.199Z,1336
2016-06-01T06:43:28.888Z,1300
2016-06-01T06:45:29.096Z,1216
2016-06-01T06:46:28.943Z,1160
2016-06-01T06:48:28.995Z,1352
2016-06-01T06:49:29.170Z,1464
2016-06-01T06:50:29.220Z,1416
2016-06-01T06:51:29.238Z,1224
2016-06-01T06:52:43.553Z,1052
2016-06-01T06:53:29.274Z,960
2016-06-01T06:55:29.327Z,904
2016-06-01T06:56:29.189Z,912
2016-06-01T06:57:29.223Z,804
2016-06-01T06:58:43.586Z,744
2016-06-01T06:59:29.431Z,828
2016-06-01T07:00:29.449Z,892
2016-06-01T07:01:29.014Z,848
2016-06-01T07:02:29.502Z,900
2016-06-01T07:03:43.552Z,960
2016-06-01T07:04:29.539Z,1000
2016-06-01T07:05:29.573Z,1048
2016-06-01T07:06:29.591Z,1120
2016-06-01T07:07:29.640Z,1212
2016-06-01T07:08:29.503Z,1288
2016-06-01T07:09:30.630Z,1208
2016-06-01T07:10:29.696Z,1136
2016-06-01T07:11:29.416Z,1192
2016-06-01T07:12:29.763Z,1304
2016-06-01T07:13:29.610Z,1448
2016-06-01T07:14:29.799Z,1572
2016-06-01T07:15:29.818Z,1580
2016-06-01T07:17:29.871Z,1540
2016-06-01T07:18:44.076Z,1420
2016-06-01T07:19:29.923Z,1380
2016-06-01T07:20:29.957Z,1412
2016-06-01T07:21:29.975Z,1416
2016-06-01T07:22:30.009Z,1404
2016-06-01T07:23:44.042Z,1380
2016-06-01T07:24:31.217Z,1308
2016-06-01T07:25:30.064Z,1208
2016-06-01T07:26:30.098Z,1272
2016-06-01T07:27:30.053Z,1312
2016-06-01T07:28:30.009Z,1212
2016-06-01T07:29:30.184Z,1216
2016-06-01T07:30:30.186Z,1200
2016-06-01T07:31:30.064Z,1228
2016-06-01T07:32:30.239Z,1468
2016-06-01T07:33:30.273Z,1688
2016-06-01T07:34:30.307Z,1864
2016-06-01T07:35:30.325Z,2188
2016-06-01T07:36:30.344Z,2404
2016-06-01T07:37:30.205Z,2304
2016-06-01T07:38:30.395Z,2144
2016-06-01T07:39:31.382Z,2072
2016-06-01T07:40:30.432Z,2056
2016-06-01T07:41:30.482Z,1808
2016-06-01T07:43:44.707Z,1284
2016-06-01T07:44:30.552Z,1344
2016-06-01T07:45:30.570Z,1620
2016-06-01T07:46:30.604Z,1640
2016-06-01T07:47:44.810Z,1500
2016-06-01T07:48:30.641Z,1392
2016-06-01T07:49:44.848Z,1348
2016-06-01T07:50:46.037Z,1256
2016-06-01T07:51:30.728Z,1244
2016-06-01T07:52:44.917Z,1100
2016-06-01T07:53:31.295Z,956
2016-06-01T07:54:31.048Z,764
2016-06-01T07:55:30.817Z,704
2016-06-01T07:56:30.850Z,684
2016-06-01T07:57:30.869Z,752
2016-06-01T07:58:30.887Z,1020
2016-06-01T07:59:30.905Z,1288
2016-06-01T08:00:30.956Z,1420
2016-06-01T08:01:30.800Z,1248
2016-06-01T08:03:31.010Z,860
2016-06-01T08:04:31.044Z,900
2016-06-01T08:05:31.061Z,852
2016-06-01T08:06:45.268Z,852
2016-06-01T08:07:31.114Z,800
2016-06-01T08:08:30.914Z,896
2016-06-01T08:10:45.388Z,1184
2016-06-01T08:11:31.202Z,1268
2016-06-01T08:12:31.237Z,1300
2016-06-01T08:13:31.271Z,1320
2016-06-01T08:14:31.118Z,1368
2016-06-01T08:15:31.152Z,1340
2016-06-01T08:16:31.341Z,1252
2016-06-01T08:17:31.360Z,1264
2016-06-01T08:18:31.221Z,1292
2016-06-01T08:19:45.584Z,1372
2016-06-01T08:20:31.274Z,1436
2016-06-01T08:21:45.637Z,1516
2016-06-01T08:22:45.671Z,1520
2016-06-01T08:23:31.517Z,1528
2016-06-01T08:24:31.566Z,1548
2016-06-01T08:25:45.585Z,1424
2016-06-01T08:26:31.431Z,1336
2016-06-01T08:27:31.606Z,1376
2016-06-01T08:28:31.623Z,1468
2016-06-01T08:29:31.658Z,1548
2016-06-01T08:30:31.676Z,1712
2016-06-01T08:31:45.882Z,2140
2016-06-01T08:32:45.916Z,2496
2016-06-01T08:33:45.933Z,2552
2016-06-01T08:34:31.625Z,2480
2016-06-01T08:36:31.833Z,2472
2016-06-01T08:37:31.852Z,2440
2016-06-01T08:38:46.057Z,1872
2016-06-01T08:39:31.888Z,1680
2016-06-01T08:40:31.938Z,1472
2016-06-01T08:41:31.955Z,1476
2016-06-01T08:42:31.818Z,1476
2016-06-01T08:43:32.008Z,1404
2016-06-01T08:44:46.058Z,1376
2016-06-01T08:45:31.904Z,1296
2016-06-01T08:47:32.097Z,1244
2016-06-01T08:48:32.132Z,1332
2016-06-01T08:49:32.009Z,1196
2016-06-01T08:50:49.901Z,1188
2016-06-01T08:51:32.076Z,1228
2016-06-01T08:53:46.426Z,1392
2016-06-01T08:54:33.007Z,1460
2016-06-01T08:55:32.290Z,1624
2016-06-01T08:56:32.324Z,1640
2016-06-01T08:57:32.343Z,1464
2016-06-01T08:58:32.361Z,1320
2016-06-01T08:59:32.238Z,1176
2016-06-01T09:00:32.414Z,1128
2016-06-01T09:01:32.447Z,1152
2016-06-01T09:02:32.309Z,1196
2016-06-01T09:03:32.500Z,1140
2016-06-01T09:04:32.517Z,1176
2016-06-01T09:05:32.567Z,1224
2016-06-01T09:06:32.398Z,1272
2016-06-01T09:07:32.588Z,1436
2016-06-01T09:08:32.622Z,1544
2016-06-01T09:09:32.483Z,1752
2016-06-01T09:10:32.658Z,1984
2016-06-01T09:11:32.552Z,2064
2016-06-01T09:12:32.711Z,2120
2016-06-01T09:13:32.745Z,2200
2016-06-01T09:14:32.779Z,1832
2016-06-01T09:15:32.470Z,1688
2016-06-01T09:16:32.857Z,1804
2016-06-01T09:17:32.727Z,1852
2016-06-01T09:18:32.941Z,1896
2016-06-01T09:19:33.016Z,1980
2016-06-01T09:20:33.056Z,2036
2016-06-01T09:21:33.068Z,1788
2016-06-01T09:22:33.094Z,1664
2016-06-01T09:23:33.122Z,1676
2016-06-01T09:24:47.211Z,1984
2016-06-01T09:26:33.228Z,1636
2016-06-01T09:27:33.249Z,1572
2016-06-01T09:28:33.129Z,1748
2016-06-01T09:29:33.307Z,1912
2016-06-01T09:30:33.329Z,1880
2016-06-01T09:31:33.363Z,2140
2016-06-01T09:33:33.403Z,2008
2016-06-01T09:34:33.438Z,1948
2016-06-01T09:35:33.457Z,1972
2016-06-01T09:36:33.476Z,2076
2016-06-01T09:37:33.354Z,2452
2016-06-01T09:38:33.529Z,2340
2016-06-01T09:39:47.610Z,2044
2016-06-01T09:40:33.269Z,1960
2016-06-01T09:42:33.479Z,1980
2016-06-01T09:44:33.531Z,2340
2016-06-01T09:45:33.706Z,2320
2016-06-01T09:46:33.725Z,1952
2016-06-01T09:47:33.743Z,1912
2016-06-01T09:48:33.777Z,2536
2016-06-01T09:49:33.795Z,2844
2016-06-01T09:50:33.673Z,3088
2016-06-01T09:51:48.035Z,3892
2016-06-01T09:52:33.726Z,4296
2016-06-01T09:53:48.087Z,5108
2016-06-01T09:54:34.417Z,5332
2016-06-01T09:55:33.953Z,6056
2016-06-01T09:56:33.986Z,7644
2016-06-01T09:57:48.036Z,8860
2016-06-01T09:58:33.866Z,9520
2016-06-01T09:59:33.900Z,9932
2016-06-01T10:00:34.075Z,9108
2016-06-01T10:01:34.094Z,8028
2016-06-01T10:02:34.128Z,7120
2016-06-01T10:03:48.333Z,6112
2016-06-01T10:04:34.179Z,5644
2016-06-01T10:05:48.089Z,4056
2016-06-01T10:06:48.419Z,3728
2016-06-01T10:07:34.094Z,3964
2016-06-01T10:08:34.299Z,3784
2016-06-01T10:09:34.130Z,3308
2016-06-01T10:10:34.321Z,2780
2016-06-01T10:11:34.355Z,2388
2016-06-01T10:12:48.577Z,1992
2016-06-01T10:13:48.594Z,1780
2016-06-01T10:15:34.444Z,1512
2016-06-01T10:16:34.493Z,1632
2016-06-01T10:17:34.495Z,1648
2016-06-01T10:18:34.529Z,1792
2016-06-01T10:19:34.407Z,2208
2016-06-01T10:20:48.754Z,2224
2016-06-01T10:21:34.444Z,2380
2016-06-01T10:23:48.668Z,2452
2016-06-01T10:24:34.499Z,2324
2016-06-01T10:25:34.721Z,2464
2016-06-01T10:26:34.567Z,3144
2016-06-01T10:27:34.741Z,4092
2016-06-01T10:28:48.963Z,3072
2016-06-01T10:29:34.637Z,2784
2016-06-01T10:31:34.846Z,3136
2016-06-01T10:32:34.724Z,3668
2016-06-01T10:33:49.086Z,7108
2016-06-01T10:34:34.917Z,7376
2016-06-01T10:35:49.122Z,7000
2016-06-01T10:36:34.969Z,8112
2016-06-01T10:37:49.174Z,8696
2016-06-01T10:38:35.022Z,11376
2016-06-01T10:39:35.664Z,12068
2016-06-01T10:40:35.073Z,11036
2016-06-01T10:41:49.280Z,9816
2016-06-01T10:42:34.954Z,10844
2016-06-01T10:43:35.144Z,11672
2016-06-01T10:44:35.162Z,10752
2016-06-01T10:45:35.180Z,11576
2016-06-01T10:46:35.057Z,12980
2016-06-01T10:47:35.265Z,14948
2016-06-01T10:48:35.267Z,15896
2016-06-01T10:49:35.145Z,14804
2016-06-01T10:50:35.163Z,13408
2016-06-01T10:51:35.197Z,11372
2016-06-01T10:52:35.371Z,10984
2016-06-01T10:53:35.405Z,9592
2016-06-01T10:54:35.283Z,9784
2016-06-01T10:55:35.332Z,10552
2016-06-01T10:56:35.335Z,9396
2016-06-01T10:57:49.697Z,9696
2016-06-01T10:58:49.715Z,9420
2016-06-01T10:59:35.547Z,9076
2016-06-01T11:00:49.768Z,9248
2016-06-01T11:01:35.599Z,9164
2016-06-01T11:03:35.494Z,8716
2016-06-01T11:04:35.700Z,8392
2016-06-01T11:05:35.547Z,7688
2016-06-01T11:06:35.580Z,7208
2016-06-01T11:07:35.755Z,6904
2016-06-01T11:08:35.774Z,6892
2016-06-01T11:09:35.730Z,7184
2016-06-01T11:10:36.576Z,7276
2016-06-01T11:11:50.032Z,7868
2016-06-01T11:12:35.893Z,8000
2016-06-01T11:13:35.912Z,8276
2016-06-01T11:14:35.790Z,8460
2016-06-01T11:15:35.980Z,8764
2016-06-01T11:16:50.170Z,9632
2016-06-01T11:17:35.720Z,9544
2016-06-01T11:19:36.069Z,8100
2016-06-01T11:20:35.946Z,7100
2016-06-01T11:21:36.121Z,6412
2016-06-01T11:22:36.139Z,6180
2016-06-01T11:23:36.173Z,6152
2016-06-01T11:24:36.223Z,4768
2016-06-01T11:25:50.398Z,3172
2016-06-01T11:26:36.087Z,2660
2016-06-01T11:27:36.262Z,2264
2016-06-01T11:28:36.296Z,2124
2016-06-01T11:29:50.503Z,2452
2016-06-01T11:30:36.364Z,2744
2016-06-01T11:31:36.069Z,3216
2016-06-01T11:33:36.278Z,4368
2016-06-01T11:34:50.641Z,5468
2016-06-01T11:35:36.347Z,5808
2016-06-01T11:36:36.522Z,6568
2016-06-01T11:38:36.402Z,8636
2016-06-01T11:39:50.795Z,10008
2016-06-01T11:41:36.643Z,9840
2016-06-01T11:42:50.708Z,9788
2016-06-01T11:43:36.524Z,9164
2016-06-01T11:44:36.699Z,9088
2016-06-01T11:45:36.733Z,9860
2016-06-01T11:46:36.610Z,10660
2016-06-01T11:47:36.785Z,11260
2016-06-01T11:48:50.850Z,11808
2016-06-01T11:49:36.837Z,11940
2016-06-01T11:50:36.871Z,12064
2016-06-01T11:51:36.890Z,12084
2016-06-01T11:52:36.923Z,11944
2016-06-01T11:53:36.942Z,11668
2016-06-01T11:54:36.912Z,11852
2016-06-01T11:55:36.868Z,11840
2016-06-01T11:56:37.028Z,11596
2016-06-01T11:57:37.046Z,11672
2016-06-01T11:59:37.114Z,11360
2016-06-01T12:00:51.164Z,11148
2016-06-01T12:01:51.339Z,11204
2016-06-01T12:02:37.184Z,11236
2016-06-01T12:03:51.250Z,11172
2016-06-01T12:04:37.081Z,10968
2016-06-01T12:05:37.100Z,10636
2016-06-01T12:06:37.288Z,10608
2016-06-01T12:07:37.323Z,10596
2016-06-01T12:08:37.342Z,10020
2016-06-01T12:09:37.391Z,9228
2016-06-01T12:10:37.112Z,8944
2016-06-01T12:11:51.616Z,8516
2016-06-01T12:12:37.305Z,9756
2016-06-01T12:13:37.480Z,9932
2016-06-01T12:14:37.514Z,9360
2016-06-01T12:15:37.532Z,9488
2016-06-01T12:16:37.566Z,10052
2016-06-01T12:18:37.618Z,12256
2016-06-01T12:19:37.340Z,12648
2016-06-01T12:20:37.685Z,12568
2016-06-01T12:21:37.720Z,12248
2016-06-01T12:22:37.738Z,11724
2016-06-01T12:23:37.757Z,11484
2016-06-01T12:24:38.009Z,12104
2016-06-01T12:25:37.824Z,10988
2016-06-01T12:26:51.874Z,10808
2016-06-01T12:27:37.861Z,10996
2016-06-01T12:28:37.755Z,10360
2016-06-01T12:29:52.117Z,12536
2016-06-01T12:30:52.134Z,10392
2016-06-01T12:31:52.029Z,10780
2016-06-01T12:32:37.843Z,10956
2016-06-01T12:33:37.877Z,11396
2016-06-01T12:34:38.067Z,11696
2016-06-01T12:35:52.117Z,13544
2016-06-01T12:36:38.119Z,13936
2016-06-01T12:37:38.154Z,12740
2016-06-01T12:38:38.016Z,10212
2016-06-01T12:39:37.894Z,10284
2016-06-01T12:41:38.258Z,10068
2016-06-01T12:42:38.277Z,9428
2016-06-01T12:43:52.498Z,9508
2016-06-01T12:44:38.344Z,9564
2016-06-01T12:45:52.549Z,9348
2016-06-01T12:47:38.446Z,9556
2016-06-01T12:48:38.449Z,9748
2016-06-01T12:49:38.483Z,9708
2016-06-01T12:50:38.501Z,9888
2016-06-01T12:51:52.566Z,9556
2016-06-01T12:52:38.257Z,9948
2016-06-01T12:53:38.604Z,9516
2016-06-01T12:54:38.777Z,10380
2016-06-01T12:55:38.655Z,10480
2016-06-01T12:56:38.674Z,10688
2016-06-01T12:58:38.726Z,11824
2016-06-01T12:59:53.245Z,11044
2016-06-01T13:00:38.637Z,10836
2016-06-01T13:01:53.000Z,11384
2016-06-01T13:02:53.034Z,11108
2016-06-01T13:03:38.880Z,11868
2016-06-01T13:04:38.586Z,9780
2016-06-01T13:05:38.636Z,10640
2016-06-01T13:06:38.950Z,14116
2016-06-01T13:07:53.172Z,14812
2016-06-01T13:08:38.846Z,13936
2016-06-01T13:09:39.052Z,10548
2016-06-01T13:10:39.289Z,9992
2016-06-01T13:11:38.933Z,9956
2016-06-01T13:12:38.825Z,10152
2016-06-01T13:13:53.344Z,10604
2016-06-01T13:14:39.190Z,9868
2016-06-01T13:15:39.208Z,8900
2016-06-01T13:16:39.071Z,8420
2016-06-01T13:17:39.121Z,10788
2016-06-01T13:18:39.296Z,9320
2016-06-01T13:19:39.329Z,9092
2016-06-01T13:20:39.347Z,8088
2016-06-01T13:21:39.382Z,8112
2016-06-01T13:22:39.416Z,7844
2016-06-01T13:23:53.621Z,8244
2016-06-01T13:24:39.843Z,8536
2016-06-01T13:25:39.580Z,10076
2016-06-01T13:26:39.520Z,11400
2016-06-01T13:28:53.760Z,10480
2016-06-01T13:29:39.450Z,10496
2016-06-01T13:30:39.468Z,8708
2016-06-01T13:31:53.689Z,7004
2016-06-01T13:32:39.723Z,6792
2016-06-01T13:33:39.570Z,7552
2016-06-01T13:34:39.744Z,8244
2016-06-01T13:35:53.967Z,8924
2016-06-01T13:36:39.828Z,12044
2016-06-01T13:37:39.831Z,12444
2016-06-01T13:38:54.052Z,11552
2016-06-01T13:39:40.242Z,8964
2016-06-01T13:40:40.214Z,10716
2016-06-01T13:41:39.935Z,7644
2016-06-01T13:43:39.862Z,8104
2016-06-01T13:44:40.037Z,8668
2016-06-01T13:45:40.056Z,8856
2016-06-01T13:46:40.089Z,8916
2016-06-01T13:52:46.997Z,10784
2016-06-01T13:53:47.000Z,10316
2016-06-01T13:54:47.518Z,9828
2016-06-01T13:55:47.411Z,9288
2016-06-01T13:57:01.258Z,8752
2016-06-01T13:57:47.119Z,8616
2016-06-01T14:04:04.636Z,8940
2016-06-01T14:05:04.608Z,8832
2016-06-01T14:06:18.799Z,8700
2016-06-01T14:07:04.472Z,8820
2016-06-01T14:08:04.663Z,9020
2016-06-01T14:09:04.713Z,9300
2016-06-01T14:10:19.840Z,9564
2016-06-01T14:11:04.750Z,9316
2016-06-01T14:12:04.768Z,8956
2016-06-01T14:13:04.817Z,8776
2016-06-01T14:14:04.648Z,8864
2016-06-01T14:15:04.698Z,11316
2016-06-01T14:16:04.716Z,11168
2016-06-01T14:17:04.890Z,8212
2016-06-01T14:18:04.925Z,8004
2016-06-01T14:19:04.802Z,7976
2016-06-01T14:20:04.851Z,7896
2016-06-01T14:21:19.183Z,7996
2016-06-01T14:22:19.217Z,8192
2016-06-01T14:23:04.937Z,8380
2016-06-01T14:24:05.098Z,9076
2016-06-01T14:25:19.709Z,8960
2016-06-01T14:26:05.009Z,9852
2016-06-01T14:27:19.371Z,9348
2016-06-01T14:28:05.217Z,8892
2016-06-01T14:29:05.236Z,8696
2016-06-01T14:30:05.253Z,9476
2016-06-01T14:31:05.287Z,8596
2016-06-01T14:32:05.322Z,7884
2016-06-01T14:33:05.339Z,8688
2016-06-01T14:34:05.375Z,10004
2016-06-01T14:35:05.408Z,9388
2016-06-01T14:36:05.285Z,9284
2016-06-01T14:37:05.303Z,6600
2016-06-01T14:38:05.338Z,6044
2016-06-01T14:39:05.513Z,5584
2016-06-01T14:40:19.577Z,5060